Time;durP1;ratioP1;P1;durP2;ratioP2;P2;SDS_P1;SDS_P2;PMS_P1;PMS_P2;Temp;Humidity;BMP_temperature;BMP_pressure;BME280_temperature;BME280_humidity;BME280_pressure;Samples;Min_cycle;Max_cycle;Signal;HPM_P1;HPM_P2
2021/08/23 00:00:57;;;;;;;4.17;3.58;;;;;;;14.59;71.15;99973.24;1751214;79;20967;-53
2021/08/23 00:03:24;;;;;;;7.70;3.80;;;;;;;14.54;71.07;99966.77;1748334;79;21511;-53
2021/08/23 00:05:50;;;;;;;3.90;2.95;;;;;;;14.53;71.12;99968.21;1750660;79;21066;-53
2021/08/23 00:08:18;;;;;;;8.78;3.50;;;;;;;14.50;71.14;99969.26;1750872;79;20935;-52
2021/08/23 00:10:45;;;;;;;5.42;3.20;;;;;;;14.50;71.10;99973.80;1749913;79;20927;-53
2021/08/23 00:13:12;;;;;;;5.75;3.92;;;;;;;14.45;71.11;99971.39;1754454;79;20899;-52
2021/08/23 00:15:40;;;;;;;5.53;4.67;;;;;;;14.44;71.08;99972.34;1754352;79;20999;-53
2021/08/23 00:18:08;;;;;;;6.70;5.05;;;;;;;14.42;71.16;99975.63;1747767;79;21472;-52
2021/08/23 00:20:45;;;;;;;5.50;4.37;;;;;;;14.40;71.20;99973.48;1757577;79;20990;-52
2021/08/23 00:23:16;;;;;;;5.80;3.90;;;;;;;14.38;71.25;99973.56;1754342;79;21389;-51
2021/08/23 00:25:42;;;;;;;6.55;4.47;;;;;;;14.31;71.40;99965.39;1752112;79;20970;-52
2021/08/23 00:28:12;;;;;;;5.65;4.30;;;;;;;14.31;71.40;99965.39;1751791;79;20970;-53
2021/08/23 00:30:40;;;;;;;4.00;3.60;;;;;;;14.30;71.09;99972.25;1702795;82;20921;-52
2021/08/23 00:33:08;;;;;;;6.10;3.62;;;;;;;14.30;71.12;99972.25;1749004;79;20935;-52
2021/08/23 00:35:34;;;;;;;6.58;3.62;;;;;;;14.30;71.12;99972.25;1750920;79;20927;-52
2021/08/23 00:38:02;;;;;;;5.47;4.10;;;;;;;14.31;71.47;99974.00;1750716;80;20922;-52
2021/08/23 00:40:28;;;;;;;6.15;4.53;;;;;;;14.30;71.50;99974.48;1725549;80;21459;-53
2021/08/23 00:42:58;;;;;;;5.72;5.05;;;;;;;14.30;71.57;99977.19;1750983;79;21717;-53
2021/08/23 00:45:24;;;;;;;7.12;5.10;;;;;;;14.28;71.56;99974.20;1751056;79;21670;-51
2021/08/23 00:47:50;;;;;;;6.30;4.55;;;;;;;14.27;71.58;99971.98;1752953;79;21101;-53
2021/08/23 00:51:41;;;;;;;5.60;4.13;;;;;;;14.29;71.65;99971.37;1793204;78;22610;-52
2021/08/23 00:54:07;;;;;;;6.00;4.78;;;;;;;14.24;71.72;99970.80;1774198;80;21435;-53
2021/08/23 00:56:33;;;;;;;7.15;3.77;;;;;;;14.24;71.72;99970.80;1771573;80;21085;-52
2021/08/23 00:59:00;;;;;;;6.30;4.92;;;;;;;14.22;71.78;99974.06;1736736;81;21255;-52
2021/08/23 01:01:54;;;;;;;6.60;4.47;;;;;;;14.23;71.87;99973.59;1704967;81;22807;-53
2021/08/23 01:04:50;;;;;;;6.65;5.15;;;;;;;14.21;71.98;99970.97;1737285;81;21514;-51
2021/08/23 01:07:18;;;;;;;5.78;3.80;;;;;;;14.21;72.09;99970.09;1709782;82;21558;-53
2021/08/23 01:09:55;;;;;;;7.70;5.22;;;;;;;14.22;72.07;99969.13;1708848;81;22259;-53
2021/08/23 01:12:23;;;;;;;9.85;4.30;;;;;;;14.21;71.99;99970.09;1709302;82;21124;-53
2021/08/23 01:14:51;;;;;;;6.55;4.25;;;;;;;14.18;71.87;99970.30;1710888;81;21069;-52
2021/08/23 01:17:17;;;;;;;3.67;3.37;;;;;;;14.13;71.97;99967.84;1733907;81;21367;-52
2021/08/23 01:19:45;;;;;;;6.75;3.70;;;;;;;14.12;72.01;99967.96;1710753;82;21166;-53
2021/08/23 01:22:12;;;;;;;6.75;4.50;;;;;;;14.10;72.01;99968.05;1717241;81;22176;-53
2021/08/23 01:24:38;;;;;;;6.62;4.20;;;;;;;14.08;72.01;99975.86;1707632;83;21041;-53
2021/08/23 01:27:08;;;;;;;6.25;3.30;;;;;;;14.05;72.16;99967.43;1710659;82;21080;-53
2021/08/23 01:29:55;;;;;;;5.35;3.35;;;;;;;14.04;72.18;99972.45;1717876;81;20985;-53
2021/08/23 01:32:23;;;;;;;6.50;4.35;;;;;;;14.02;72.20;99962.22;1713203;81;22130;-53
2021/08/23 01:34:50;;;;;;;6.50;4.28;;;;;;;14.02;72.20;99962.22;1714546;82;22539;-53
2021/08/23 01:37:17;;;;;;;5.15;4.62;;;;;;;14.03;71.99;99968.50;1721752;82;21002;-53
2021/08/23 01:39:43;;;;;;;7.20;5.75;;;;;;;14.03;71.89;99971.21;1737762;81;21939;-53
2021/08/23 01:42:09;;;;;;;6.30;4.45;;;;;;;14.00;71.85;99966.36;1706456;82;21129;-52
2021/08/23 01:44:36;;;;;;;8.98;4.12;;;;;;;13.98;71.92;99968.75;1739671;81;21093;-54
2021/08/23 01:47:03;;;;;;;4.60;4.03;;;;;;;13.94;71.97;99966.73;1739238;81;21128;-54
2021/08/23 01:49:29;;;;;;;6.22;3.65;;;;;;;13.93;71.74;99970.39;1735312;81;21074;-54
2021/08/23 01:51:55;;;;;;;5.50;3.50;;;;;;;13.93;71.74;99970.39;1726420;81;21023;-54
2021/08/23 01:54:22;;;;;;;5.83;4.25;;;;;;;13.93;71.94;99965.46;1760047;80;20995;-54
2021/08/23 01:56:49;;;;;;;5.45;3.58;;;;;;;13.92;71.79;99970.48;1758639;80;21519;-54
2021/08/23 01:59:16;;;;;;;5.97;4.72;;;;;;;13.90;71.86;99966.50;1762937;80;22349;-54
2021/08/23 02:01:42;;;;;;;9.90;4.90;;;;;;;13.90;71.84;99966.50;1759126;80;21464;-54
2021/08/23 02:04:09;;;;;;;7.03;5.92;;;;;;;13.87;71.84;99964.44;1763848;80;22168;-54
2021/08/23 02:06:35;;;;;;;5.58;4.50;;;;;;;13.83;71.89;99966.47;1760339;79;21576;-54
2021/08/23 02:09:01;;;;;;;6.05;4.40;;;;;;;13.76;71.88;99967.80;1760967;80;21117;-54
2021/08/23 02:11:29;;;;;;;4.17;3.50;;;;;;;13.73;72.12;99971.14;1762878;80;21132;-54
2021/08/23 02:13:55;;;;;;;6.10;4.67;;;;;;;13.71;72.11;99972.58;1698625;82;21659;-54
2021/08/23 02:16:22;;;;;;;7.17;4.70;;;;;;;13.64;72.23;99972.06;1760902;80;21113;-54
2021/08/23 02:18:48;;;;;;;6.65;3.65;;;;;;;13.64;72.23;99972.06;1759636;80;21058;-54
2021/08/23 02:21:14;;;;;;;4.72;3.95;;;;;;;13.63;72.29;99972.15;1752419;80;21078;-54
2021/08/23 02:23:41;;;;;;;6.45;4.78;;;;;;;13.61;72.15;99972.23;1758639;80;21065;-54
2021/08/23 02:26:08;;;;;;;7.10;4.28;;;;;;;13.60;72.12;99970.52;1761825;80;21067;-54
2021/08/23 02:28:36;;;;;;;7.72;4.50;;;;;;;13.60;72.03;99970.52;1759316;80;21019;-54
2021/08/23 02:31:03;;;;;;;7.05;4.22;;;;;;;13.59;71.95;99968.77;1758949;80;21094;-54
2021/08/23 02:33:31;;;;;;;9.63;5.33;;;;;;;13.58;71.81;99972.91;1761441;80;21057;-54
2021/08/23 02:35:59;;;;;;;9.03;5.12;;;;;;;13.55;71.69;99975.77;1759078;80;21405;-54
2021/08/23 02:38:25;;;;;;;4.28;3.83;;;;;;;13.49;71.59;99978.36;1759825;80;21094;-54
2021/08/23 02:40:52;;;;;;;4.97;4.15;;;;;;;13.47;71.57;99980.75;1764771;80;20954;-54
2021/08/23 02:43:18;;;;;;;6.12;4.60;;;;;;;13.43;71.70;99977.84;1756031;80;21046;-54
2021/08/23 02:45:44;;;;;;;6.90;4.50;;;;;;;13.41;71.79;99973.86;1760271;80;21114;-54
2021/08/23 02:48:10;;;;;;;7.17;3.87;;;;;;;13.41;71.81;99977.05;1758913;80;22607;-54
2021/08/23 02:50:37;;;;;;;6.95;4.17;;;;;;;13.41;71.78;99980.63;1724673;82;21117;-54
2021/08/23 02:53:03;;;;;;;5.67;4.60;;;;;;;13.39;71.73;99974.42;1766772;80;21118;-54
2021/08/23 02:55:30;;;;;;;7.67;5.67;;;;;;;13.38;71.77;99981.26;1766731;80;21154;-54
2021/08/23 02:57:56;;;;;;;5.85;5.05;;;;;;;13.34;71.84;99977.00;1769910;80;21469;-54
2021/08/23 03:00:23;;;;;;;9.75;5.20;;;;;;;13.29;71.88;99972.30;1767397;80;21412;-54
2021/08/23 03:02:49;;;;;;;6.75;4.17;;;;;;;13.25;71.84;99980.61;1766923;80;21034;-54
2021/08/23 03:05:16;;;;;;;6.83;3.77;;;;;;;13.22;71.81;99986.66;1769937;80;21049;-54
2021/08/23 03:07:44;;;;;;;6.47;4.37;;;;;;;13.19;71.89;99982.75;1763564;80;21069;-54
2021/08/23 03:10:10;;;;;;;6.70;3.95;;;;;;;13.17;72.06;99979.29;1770300;80;21622;-54
2021/08/23 03:12:37;;;;;;;5.28;3.62;;;;;;;13.17;72.05;99984.70;1768434;80;21857;-54
2021/08/23 03:15:06;;;;;;;6.55;3.12;;;;;;;13.16;72.11;99993.28;1772549;80;20998;-54
2021/08/23 03:17:34;;;;;;;5.67;4.58;;;;;;;13.17;72.16;99979.29;1774836;80;20887;-54
2021/08/23 03:20:00;;;;;;;8.93;5.10;;;;;;;13.17;72.22;99984.70;1770450;80;20971;-54
2021/08/23 03:22:26;;;;;;;6.17;4.62;;;;;;;13.17;72.32;99984.70;1773937;80;20959;-54
2021/08/23 03:24:53;;;;;;;11.88;4.17;;;;;;;13.17;72.47;99996.38;1773144;80;21110;-54
2021/08/23 03:27:19;;;;;;;8.40;3.65;;;;;;;13.18;72.63;99995.39;1773172;80;21396;-54
2021/08/23 03:29:50;;;;;;;7.37;3.75;;;;;;;13.19;72.79;99994.44;1769989;80;21519;-54
2021/08/23 03:32:15;;;;;;;8.43;4.00;;;;;;;13.22;72.95;100000.16;1770753;80;21051;-54
2021/08/23 03:34:41;;;;;;;5.00;3.55;;;;;;;13.24;73.16;99996.43;1770076;80;20919;-53
2021/08/23 03:37:07;;;;;;;8.45;4.85;;;;;;;13.28;73.37;100003.00;1769888;79;22220;-53
2021/08/23 03:39:34;;;;;;;5.80;4.35;;;;;;;13.32;73.51;99999.19;1770032;80;21256;-54
2021/08/23 03:42:00;;;;;;;9.18;3.72;;;;;;;13.36;73.65;99996.69;1765723;80;21128;-54
2021/08/23 03:44:29;;;;;;;5.10;4.55;;;;;;;13.39;73.78;99999.23;1768775;80;20906;-54
2021/08/23 03:46:56;;;;;;;6.95;4.47;;;;;;;13.44;73.88;99999.87;1759333;79;21101;-54
2021/08/23 03:49:22;;;;;;;5.25;4.72;;;;;;;13.46;73.95;99997.92;1769692;80;21543;-54
2021/08/23 03:51:49;;;;;;;6.25;3.95;;;;;;;13.48;74.03;100000.95;1761113;80;21078;-54
2021/08/23 03:54:15;;;;;;;4.30;3.17;;;;;;;13.51;74.14;100001.27;1759704;80;21085;-53
2021/08/23 03:56:42;;;;;;;11.12;4.42;;;;;;;13.55;74.22;99999.64;1763956;79;21068;-53
2021/08/23 03:59:08;;;;;;;4.00;3.33;;;;;;;13.60;74.34;100001.62;1759184;80;21073;-54
2021/08/23 04:01:35;;;;;;;6.95;4.75;;;;;;;13.66;74.46;100006.28;1759886;80;22582;-54
2021/08/23 04:04:01;;;;;;;3.95;3.50;;;;;;;13.73;74.58;100010.37;1759808;79;21042;-53
2021/08/23 04:06:28;;;;;;;4.33;3.85;;;;;;;13.79;74.71;100005.47;1762519;80;21383;-54
2021/08/23 04:08:54;;;;;;;6.08;4.75;;;;;;;13.86;74.85;100002.84;1753133;80;21078;-54
2021/08/23 04:11:20;;;;;;;4.35;3.75;;;;;;;13.96;74.94;100005.38;1761547;80;21636;-54
2021/08/23 04:13:47;;;;;;;5.85;4.90;;;;;;;14.10;75.03;99996.95;1762476;80;21132;-54
2021/08/23 04:16:15;;;;;;;7.62;5.03;;;;;;;14.26;75.03;99997.30;1761802;80;21340;-54
2021/08/23 04:18:41;;;;;;;6.70;3.83;;;;;;;14.43;74.82;99996.33;1762880;80;21577;-54
2021/08/23 04:21:08;;;;;;;4.25;3.83;;;;;;;14.58;74.54;99999.45;1757502;80;21056;-54
2021/08/23 04:23:35;;;;;;;4.10;3.47;;;;;;;14.68;74.39;99999.77;1761211;80;21531;-54
2021/08/23 04:26:02;;;;;;;6.15;5.05;;;;;;;14.81;74.35;99998.52;1762196;79;21177;-54
2021/08/23 04:28:28;;;;;;;5.95;4.83;;;;;;;14.81;74.35;99998.52;1759850;80;21096;-54
2021/08/23 04:30:55;;;;;;;7.80;6.03;;;;;;;14.92;74.13;99990.61;1762256;80;21236;-54
2021/08/23 04:33:22;;;;;;;9.45;6.72;;;;;;;14.92;74.13;99990.61;1759366;80;21022;-54
2021/08/23 04:35:48;;;;;;;9.03;5.92;;;;;;;14.99;74.02;99991.97;1763415;80;20984;-54
2021/08/23 04:38:15;;;;;;;8.85;6.05;;;;;;;15.04;73.90;99985.31;1764241;80;21293;-54
2021/08/23 04:40:41;;;;;;;5.50;4.85;;;;;;;15.11;73.96;99988.02;1762458;80;21483;-54
2021/08/23 04:43:08;;;;;;;6.62;4.90;;;;;;;15.21;74.03;99991.50;1753347;80;21032;-54
2021/08/23 04:45:34;;;;;;;10.20;5.75;;;;;;;15.30;74.17;99993.63;1756663;80;21146;-54
2021/08/23 04:48:01;;;;;;;14.33;7.22;;;;;;;15.39;74.19;99989.85;1733811;80;21107;-53
2021/08/23 04:50:27;;;;;;;9.10;5.20;;;;;;;15.50;74.78;99992.72;1764855;80;21099;-54
2021/08/23 04:52:54;;;;;;;8.43;4.92;;;;;;;15.60;75.16;99991.68;1759625;80;21075;-53
2021/08/23 04:55:20;;;;;;;7.83;6.10;;;;;;;15.68;75.09;99983.91;1761471;80;21447;-54
2021/08/23 04:57:48;;;;;;;6.67;5.62;;;;;;;15.78;75.10;99985.05;1763124;80;21015;-54
2021/08/23 05:00:15;;;;;;;5.85;5.25;;;;;;;15.88;75.10;99989.39;1757876;79;21121;-53
2021/08/23 05:02:41;;;;;;;10.35;5.72;;;;;;;15.96;74.72;99984.32;1755425;80;22137;-54
2021/08/23 05:05:08;;;;;;;7.97;5.28;;;;;;;16.03;74.51;99984.77;1763237;80;21095;-54
2021/08/23 05:07:35;;;;;;;5.62;5.10;;;;;;;16.12;74.52;99991.82;1765218;79;21030;-54
2021/08/23 05:10:02;;;;;;;5.75;5.30;;;;;;;16.21;74.31;99980.83;1748527;80;21045;-53
2021/08/23 05:12:28;;;;;;;7.22;5.05;;;;;;;16.31;73.91;99981.95;1757219;80;21566;-54
2021/08/23 05:14:55;;;;;;;6.53;4.45;;;;;;;16.41;73.67;99974.05;1760984;80;21476;-54
2021/08/23 05:17:21;;;;;;;6.35;5.20;;;;;;;16.50;73.56;99976.13;1748824;80;21054;-54
2021/08/23 05:19:47;;;;;;;6.00;5.50;;;;;;;16.58;73.23;99976.47;1761776;79;21144;-54
2021/08/23 05:22:14;;;;;;;6.80;6.12;;;;;;;16.67;73.16;99984.02;1721286;82;21453;-54
2021/08/23 05:24:40;;;;;;;7.72;5.20;;;;;;;16.77;73.07;99991.02;1757234;80;21604;-54
2021/08/23 05:27:07;;;;;;;6.85;5.25;;;;;;;16.85;72.84;99991.34;1694562;82;21530;-53
2021/08/23 05:29:33;;;;;;;6.90;4.53;;;;;;;16.94;72.64;99994.29;1694780;83;21616;-54
2021/08/23 05:31:59;;;;;;;8.43;4.83;;;;;;;17.03;72.53;99990.05;1693590;83;21161;-54
2021/08/23 05:34:26;;;;;;;5.55;4.92;;;;;;;17.12;72.30;99991.25;1696687;83;21110;-54
2021/08/23 05:36:52;;;;;;;6.85;5.67;;;;;;;17.22;72.02;99989.61;1696320;83;21153;-54
2021/08/23 05:39:18;;;;;;;9.40;6.62;;;;;;;17.30;71.86;99988.57;1698618;83;21093;-54
2021/08/23 05:41:45;;;;;;;11.28;7.03;;;;;;;17.42;71.49;99992.27;1752917;80;21030;-54
2021/08/23 05:44:11;;;;;;;7.75;4.75;;;;;;;17.52;71.38;99997.42;1752421;80;21317;-54
2021/08/23 05:46:37;;;;;;;5.35;4.92;;;;;;;17.62;71.14;99993.06;1758680;80;21595;-54
2021/08/23 05:49:04;;;;;;;7.87;5.85;;;;;;;17.70;70.99;99992.00;1759993;80;21367;-53
2021/08/23 05:51:30;;;;;;;8.08;6.70;;;;;;;17.78;70.85;99987.73;1764179;80;22675;-53
2021/08/23 05:53:57;;;;;;;9.65;5.08;;;;;;;17.88;70.73;99991.13;1765520;80;21794;-53
2021/08/23 05:56:23;;;;;;;7.22;5.15;;;;;;;17.99;70.20;99975.73;1772666;79;21635;-53
2021/08/23 05:58:50;;;;;;;7.28;5.25;;;;;;;18.07;69.57;99983.33;1768662;80;21049;-54
2021/08/23 06:01:16;;;;;;;7.55;5.37;;;;;;;18.14;69.36;99976.42;1763958;80;21113;-54
2021/08/23 06:03:44;;;;;;;6.33;5.65;;;;;;;18.21;69.42;99976.33;1771430;80;21726;-53
2021/08/23 06:06:10;;;;;;;5.45;4.40;;;;;;;18.30;69.35;99976.99;1769029;80;20904;-54
2021/08/23 06:08:37;;;;;;;6.53;5.03;;;;;;;18.39;68.83;99979.02;1770629;79;20907;-54
2021/08/23 06:11:03;;;;;;;4.40;4.00;;;;;;;18.48;68.25;99981.53;1771024;80;20891;-54
2021/08/23 06:13:29;;;;;;;6.10;3.45;;;;;;;18.54;67.58;99972.90;1770617;80;20987;-54
2021/08/23 06:15:57;;;;;;;8.35;4.25;;;;;;;18.59;67.11;99973.43;1769593;80;21056;-54
2021/08/23 06:18:23;;;;;;;3.90;3.52;;;;;;;18.63;66.82;99970.83;1769876;80;20959;-54
2021/08/23 06:20:50;;;;;;;4.28;2.77;;;;;;;18.70;66.55;99968.02;1768900;80;20887;-54
2021/08/23 06:23:16;;;;;;;5.28;2.90;;;;;;;18.78;66.27;99973.73;1707578;82;21359;-54
2021/08/23 06:25:45;;;;;;;3.52;2.90;;;;;;;18.86;65.89;99971.27;1771825;79;20884;-54
2021/08/23 06:28:11;;;;;;;5.67;2.85;;;;;;;18.97;65.86;99975.02;1775397;79;21105;-54
2021/08/23 06:30:38;;;;;;;5.75;3.00;;;;;;;19.04;65.72;99974.41;1774887;79;20998;-54
2021/08/23 06:33:04;;;;;;;5.53;3.02;;;;;;;19.14;65.21;99974.55;1774743;79;20982;-53
2021/08/23 06:35:32;;;;;;;4.37;3.00;;;;;;;19.22;65.05;99971.54;1766998;79;21461;-53
2021/08/23 06:37:58;;;;;;;3.75;2.98;;;;;;;19.31;64.64;99967.20;1764821;80;21067;-54
2021/08/23 06:40:25;;;;;;;3.37;3.08;;;;;;;19.40;64.04;99965.09;1775533;79;23321;-54
2021/08/23 06:42:51;;;;;;;3.98;3.55;;;;;;;19.48;63.73;99967.27;1770615;80;21081;-55
2021/08/23 06:45:17;;;;;;;6.22;3.62;;;;;;;19.54;63.65;99961.29;1761921;79;21104;-54
2021/08/23 06:47:43;;;;;;;2.90;2.67;;;;;;;19.62;63.89;99965.13;1767001;80;21342;-54
2021/08/23 06:50:10;;;;;;;5.72;3.10;;;;;;;19.69;63.09;99963.25;1764733;79;21562;-55
2021/08/23 06:52:37;;;;;;;3.20;2.87;;;;;;;19.73;63.04;99961.52;1751142;80;21528;-55
2021/08/23 06:55:05;;;;;;;5.53;2.87;;;;;;;19.78;62.71;99956.53;1730050;81;21470;-55
2021/08/23 06:57:31;;;;;;;3.25;2.30;;;;;;;19.83;62.42;99957.00;1689846;83;21086;-55
2021/08/23 06:59:57;;;;;;;5.33;2.20;;;;;;;19.90;61.99;99958.75;1721972;82;21053;-55
2021/08/23 07:02:23;;;;;;;2.35;2.08;;;;;;;19.98;61.97;99959.84;1727285;82;21089;-53
2021/08/23 07:04:50;;;;;;;3.00;2.12;;;;;;;20.08;62.05;99954.45;1721816;81;21210;-54
2021/08/23 07:07:17;;;;;;;3.15;2.62;;;;;;;20.19;61.68;99959.02;1722148;82;21047;-54
2021/08/23 07:09:45;;;;;;;2.58;1.90;;;;;;;20.29;61.72;99955.37;1732782;81;20923;-55
2021/08/23 07:12:11;;;;;;;3.37;2.60;;;;;;;20.40;61.30;99959.97;1734000;81;21029;-54
2021/08/23 07:14:38;;;;;;;3.25;2.17;;;;;;;20.50;60.72;99959.52;1730373;81;21093;-54
2021/08/23 07:17:05;;;;;;;6.20;2.85;;;;;;;20.63;60.39;99966.19;1722637;81;21921;-54
2021/08/23 07:19:33;;;;;;;3.20;2.37;;;;;;;20.73;60.21;99967.13;1729591;82;20979;-54
2021/08/23 07:22:00;;;;;;;3.95;2.27;;;;;;;20.85;60.01;99969.28;1723978;81;21094;-55
2021/08/23 07:24:26;;;;;;;2.60;2.15;;;;;;;20.95;59.97;99965.61;1678437;83;21773;-55
2021/08/23 07:26:52;;;;;;;2.70;1.57;;;;;;;21.03;58.88;99956.72;1682996;84;21085;-55
2021/08/23 07:29:20;;;;;;;2.58;2.08;;;;;;;21.12;58.98;99960.02;1729304;82;21085;-54
2021/08/23 07:31:46;;;;;;;2.22;2.02;;;;;;;21.21;59.33;99959.73;1724232;81;21046;-54
2021/08/23 07:34:13;;;;;;;3.27;2.05;;;;;;;21.31;59.01;99962.90;1718266;81;21112;-54
2021/08/23 07:36:39;;;;;;;4.08;2.25;;;;;;;21.38;58.83;99964.58;1724297;82;21398;-55
2021/08/23 07:39:05;;;;;;;4.72;2.20;;;;;;;21.45;58.57;99970.73;1722431;81;21109;-54
2021/08/23 07:41:32;;;;;;;3.20;2.90;;;;;;;21.50;58.20;99970.34;1683280;83;21135;-55
2021/08/23 07:43:58;;;;;;;3.25;1.40;;;;;;;21.55;58.04;99983.59;1672033;84;21081;-55
2021/08/23 07:46:25;;;;;;;1.80;1.40;;;;;;;21.62;58.60;99983.41;1673398;84;21045;-55
2021/08/23 07:48:52;;;;;;;2.10;1.50;;;;;;;21.69;58.20;99981.34;1682094;83;21061;-55
2021/08/23 07:51:18;;;;;;;4.12;2.05;;;;;;;21.76;57.75;99981.67;1723021;81;21065;-55
2021/08/23 07:53:45;;;;;;;1.95;1.37;;;;;;;21.82;57.13;99981.11;1752310;79;22220;-55
2021/08/23 07:56:11;;;;;;;1.65;1.40;;;;;;;21.88;56.61;99982.77;1769074;80;21002;-55
2021/08/23 07:58:37;;;;;;;1.87;1.67;;;;;;;21.96;55.88;99977.09;1758502;79;21572;-55
2021/08/23 08:01:04;;;;;;;1.72;1.62;;;;;;;22.02;56.11;99979.33;1759926;80;21083;-54
2021/08/23 08:03:30;;;;;;;1.10;1.00;;;;;;;22.10;55.55;99974.00;1756143;80;21101;-54
2021/08/23 08:05:56;;;;;;;1.65;1.10;;;;;;;22.16;55.60;99974.29;1754813;80;23315;-55
2021/08/23 08:08:23;;;;;;;2.25;1.35;;;;;;;22.24;55.69;99976.31;1759042;80;21660;-54
2021/08/23 08:10:49;;;;;;;2.00;1.37;;;;;;;22.29;54.74;99976.74;1758363;80;21505;-54
2021/08/23 08:13:15;;;;;;;2.85;1.07;;;;;;;22.33;54.98;99976.83;1695624;82;21094;-53
2021/08/23 08:15:42;;;;;;;2.45;1.40;;;;;;;22.40;53.72;99977.98;1758832;80;21116;-54
2021/08/23 08:18:08;;;;;;;1.90;1.00;;;;;;;22.44;53.06;99983.56;1757919;80;21131;-54
2021/08/23 08:20:35;;;;;;;9.75;1.37;;;;;;;22.51;52.36;99979.22;1758152;80;21519;-54
2021/08/23 08:23:02;;;;;;;1.07;0.80;;;;;;;22.55;51.48;99986.64;1758397;79;21025;-54
2021/08/23 08:25:30;;;;;;;2.20;0.80;;;;;;;22.60;50.81;99983.84;1757292;80;21061;-54
2021/08/23 08:27:56;;;;;;;1.12;1.02;;;;;;;22.64;50.87;99982.53;1759476;80;21843;-54
2021/08/23 08:30:22;;;;;;;1.30;0.88;;;;;;;22.74;50.95;99977.54;1677220;82;21079;-54
2021/08/23 08:32:50;;;;;;;0.90;0.80;;;;;;;22.85;50.48;99986.53;1760403;80;21038;-54
2021/08/23 08:35:16;;;;;;;1.00;0.80;;;;;;;22.93;49.60;99991.28;1759514;80;21078;-54
2021/08/23 08:37:43;;;;;;;0.90;0.78;;;;;;;22.97;48.82;99979.84;1758948;80;21071;-54
2021/08/23 08:40:10;;;;;;;0.85;0.80;;;;;;;23.03;48.91;99981.16;1757962;80;21411;-54
2021/08/23 08:42:37;;;;;;;0.98;0.80;;;;;;;23.11;49.12;99979.04;1758702;80;21106;-54
2021/08/23 08:45:04;;;;;;;1.10;0.80;;;;;;;23.20;49.40;99977.64;1760754;80;21022;-54
2021/08/23 08:47:30;;;;;;;0.80;0.80;;;;;;;23.27;48.71;99974.66;1766213;80;20887;-54
2021/08/23 08:50:00;;;;;;;1.07;0.80;;;;;;;23.35;48.99;99978.02;1765667;80;20946;-54
2021/08/23 08:52:26;;;;;;;0.70;0.70;;;;;;;23.43;47.90;99976.77;1764789;80;20985;-54
2021/08/23 08:54:53;;;;;;;0.70;0.70;;;;;;;23.52;47.92;99975.03;1760011;80;21916;-54
2021/08/23 08:57:20;;;;;;;1.10;0.70;;;;;;;23.61;47.44;99975.50;1764484;80;20906;-54
2021/08/23 08:59:46;;;;;;;0.80;0.70;;;;;;;23.70;47.42;99967.72;1764201;80;20924;-54
2021/08/23 09:02:13;;;;;;;0.80;0.70;;;;;;;23.76;46.94;99966.59;1764313;80;21416;-54
2021/08/23 09:04:39;;;;;;;0.75;0.75;;;;;;;23.85;46.58;99963.44;1764084;80;21555;-55
2021/08/23 09:07:08;;;;;;;1.12;0.80;;;;;;;23.94;46.34;99956.15;1766427;80;21084;-53
2021/08/23 09:09:34;;;;;;;1.07;0.75;;;;;;;24.04;46.04;99952.33;1730480;82;20987;-54
2021/08/23 09:12:11;;;;;;;0.80;0.70;;;;;;;24.12;46.22;99951.55;1725464;82;21484;-54
2021/08/23 09:14:54;;;;;;;1.10;0.70;;;;;;;24.18;45.15;99956.41;1758811;80;20911;-55
2021/08/23 09:17:23;;;;;;;1.87;0.70;;;;;;;24.20;45.27;99959.02;1765977;80;20971;-55
2021/08/23 09:20:03;;;;;;;1.10;0.70;;;;;;;24.18;44.44;99950.05;1762792;80;20975;-54
2021/08/23 09:22:30;;;;;;;1.00;0.88;;;;;;;24.16;44.29;99947.98;1758940;79;21611;-54
2021/08/23 09:25:11;;;;;;;0.88;0.70;;;;;;;24.14;43.73;99944.02;1757602;79;21026;-54
2021/08/23 09:27:38;;;;;;;1.85;0.90;;;;;;;24.10;44.30;99946.20;1755921;80;20915;-54
2021/08/23 09:30:06;;;;;;;0.70;0.62;;;;;;;24.07;45.07;99946.49;1759497;80;20998;-55
2021/08/23 09:32:49;;;;;;;0.60;0.60;;;;;;;24.08;45.08;99948.23;1760419;80;21163;-54
2021/08/23 09:35:37;;;;;;;1.10;0.70;;;;;;;24.08;44.59;99946.85;1764570;80;20958;-55
2021/08/23 09:38:12;;;;;;;1.85;0.80;;;;;;;24.10;44.65;99953.06;1757626;80;21041;-55
2021/08/23 09:40:38;;;;;;;0.72;0.70;;;;;;;24.14;44.59;99939.88;1764750;80;21027;-55
2021/08/23 09:43:13;;;;;;;0.80;0.70;;;;;;;24.19;45.04;99937.52;1764349;80;21362;-55
2021/08/23 09:45:50;;;;;;;2.55;0.80;;;;;;;24.23;43.79;99933.99;1763747;80;21834;-54
2021/08/23 09:48:17;;;;;;;0.80;0.80;;;;;;;24.24;44.51;99937.97;1759578;80;21062;-55
2021/08/23 09:50:47;;;;;;;1.00;1.00;;;;;;;24.22;43.99;99933.64;1760175;80;20897;-55
2021/08/23 09:53:15;;;;;;;1.77;0.80;;;;;;;24.17;43.99;99927.17;1757775;80;20972;-54
2021/08/23 09:55:44;;;;;;;1.42;0.90;;;;;;;24.10;43.95;99931.06;1760108;80;21082;-55
2021/08/23 09:58:11;;;;;;;2.65;0.80;;;;;;;24.05;43.55;99929.81;1759960;80;21126;-55
2021/08/23 10:00:38;;;;;;;0.70;0.70;;;;;;;24.02;43.83;99921.36;1761377;80;21061;-55
2021/08/23 10:03:14;;;;;;;1.55;1.10;;;;;;;23.94;43.78;99921.27;1763498;80;20956;-54
2021/08/23 10:05:48;;;;;;;0.80;0.70;;;;;;;23.88;43.81;99917.78;1761507;79;21531;-54
2021/08/23 10:08:24;;;;;;;0.95;0.70;;;;;;;23.79;43.90;99924.70;1693478;82;21607;-54
2021/08/23 10:10:52;;;;;;;1.60;0.80;;;;;;;23.67;43.80;99930.41;1765994;80;20927;-54
2021/08/23 10:13:18;;;;;;;0.70;0.70;;;;;;;23.55;43.50;99922.53;1763201;80;21030;-54
2021/08/23 10:15:44;;;;;;;1.00;0.70;;;;;;;23.46;43.64;99922.91;1704314;82;21063;-54
2021/08/23 10:18:11;;;;;;;0.70;0.62;;;;;;;23.40;43.65;99920.74;1764036;80;21576;-55
2021/08/23 10:20:38;;;;;;;1.25;0.93;;;;;;;23.38;43.27;99925.04;1759565;80;21636;-55
2021/08/23 10:23:05;;;;;;;0.72;0.70;;;;;;;23.38;42.96;99921.42;1724322;82;21513;-55
2021/08/23 10:25:31;;;;;;;2.25;0.70;;;;;;;23.39;43.34;99917.13;1758739;80;20983;-54
2021/08/23 10:28:12;;;;;;;0.93;0.70;;;;;;;23.45;43.62;99932.66;1718397;82;21085;-54
2021/08/23 10:30:39;;;;;;;1.00;0.72;;;;;;;23.51;43.16;99929.34;1757817;80;21056;-55
2021/08/23 10:33:16;;;;;;;0.90;0.70;;;;;;;23.55;42.74;99924.77;1766779;80;20947;-55
2021/08/23 10:35:55;;;;;;;0.93;0.90;;;;;;;23.60;43.20;99935.30;1758304;79;21079;-55
2021/08/23 10:38:24;;;;;;;1.07;0.98;;;;;;;23.64;42.81;99932.61;1766810;80;20955;-54
2021/08/23 10:41:16;;;;;;;1.00;0.80;;;;;;;23.68;43.07;99928.52;1766146;79;20960;-54
2021/08/23 10:43:56;;;;;;;1.27;0.80;;;;;;;23.70;42.96;99930.62;1761083;80;21022;-55
2021/08/23 10:46:29;;;;;;;1.02;0.68;;;;;;;23.71;42.48;99933.22;1763440;80;21093;-55
2021/08/23 10:48:58;;;;;;;0.82;0.70;;;;;;;23.73;43.36;99935.28;1762238;80;23264;-55
2021/08/23 10:51:37;;;;;;;4.40;0.70;;;;;;;23.78;42.18;99930.71;1765406;80;21069;-55
2021/08/23 10:54:23;;;;;;;3.67;0.68;;;;;;;23.81;42.24;99922.17;1762698;80;21086;-55
2021/08/23 10:57:09;;;;;;;0.80;0.80;;;;;;;23.87;42.11;99920.68;1768859;80;21018;-55
2021/08/23 10:59:54;;;;;;;1.17;0.85;;;;;;;23.94;42.26;99919.03;1763657;79;21409;-55
2021/08/23 11:02:34;;;;;;;3.50;0.90;;;;;;;24.00;42.31;99920.64;1729796;82;21081;-55
2021/08/23 11:05:14;;;;;;;1.05;0.82;;;;;;;24.11;42.30;99917.68;1703281;83;21010;-55
2021/08/23 11:07:42;;;;;;;0.80;0.70;;;;;;;24.18;42.73;99916.53;1762378;80;21805;-54
2021/08/23 11:10:13;;;;;;;1.40;0.70;;;;;;;24.24;43.35;99913.72;1765405;80;20877;-55
2021/08/23 11:12:52;;;;;;;1.15;0.60;;;;;;;24.27;43.29;99919.75;1760565;80;21520;-55
2021/08/23 11:15:31;;;;;;;0.75;0.70;;;;;;;24.33;42.87;99912.78;1767154;80;21220;-55
2021/08/23 11:18:02;;;;;;;2.15;0.70;;;;;;;24.38;42.71;99907.14;1765145;80;21231;-55
2021/08/23 11:20:34;;;;;;;0.82;0.70;;;;;;;24.48;42.60;99909.81;1768755;80;20928;-54
2021/08/23 11:23:07;;;;;;;1.00;0.70;;;;;;;24.59;42.89;99910.92;1728993;82;21073;-55
2021/08/23 11:25:44;;;;;;;2.27;0.70;;;;;;;24.68;41.65;99907.72;1767349;79;21065;-55
2021/08/23 11:28:18;;;;;;;0.60;0.60;;;;;;;24.72;40.82;99892.11;1763840;80;21195;-54
2021/08/23 11:30:49;;;;;;;0.95;0.70;;;;;;;24.76;40.83;99903.14;1763007;80;21486;-55
2021/08/23 11:33:36;;;;;;;0.72;0.68;;;;;;;24.75;40.22;99896.45;1770392;80;20888;-55
2021/08/23 11:36:06;;;;;;;0.95;0.80;;;;;;;24.75;40.49;99895.90;1757650;80;21567;-55
2021/08/23 11:38:35;;;;;;;0.80;0.60;;;;;;;24.76;41.04;99897.63;1739102;80;20995;-54
2021/08/23 11:41:03;;;;;;;0.70;0.60;;;;;;;24.80;41.27;99897.68;1769062;80;21413;-55